Time;durP1;ratioP1;P1;durP2;ratioP2;P2;SDS_P1;SDS_P2;PMS_P1;PMS_P2;Temp;Humidity;BMP_temperature;BMP_pressure;BME280_temperature;BME280_humidity;BME280_pressure;Samples;Min_cycle;Max_cycle;Signal;HPM_P1;HPM_P2
2022/01/04 00:01:47;;;;;;;6.85;1.67;;;;;;;;;;5053792;28;20071;-74
2022/01/04 00:04:15;;;;;;;6.10;1.48;;;;;;;;;;5052404;28;20041;-73
2022/01/04 00:06:44;;;;;;;8.63;1.83;;;;;;;;;;5053971;28;20055;-75
2022/01/04 00:09:12;;;;;;;10.88;2.25;;;;;;;;;;5053909;28;20028;-74
2022/01/04 00:14:19;;;;;;;18.02;3.50;;;;;;;;;;5053748;28;20029;-73
2022/01/04 00:16:46;;;;;;;9.10;2.67;;;;;;;;;;5053465;28;20109;-74
2022/01/04 00:19:13;;;;;;;10.52;2.78;;;;;;;;;;5053653;28;20029;-73
2022/01/04 00:21:42;;;;;;;31.98;4.93;;;;;;;;;;5053514;28;20021;-73
2022/01/04 00:24:09;;;;;;;7.75;1.52;;;;;;;;;;5051822;28;20034;-73
2022/01/04 00:26:36;;;;;;;10.07;2.20;;;;;;;;;;5053353;28;20032;-73
2022/01/04 00:29:03;;;;;;;8.10;1.77;;;;;;;;;;5052645;28;20025;-73
2022/01/04 00:31:31;;;;;;;8.80;1.65;;;;;;;;;;5053342;28;20385;-74
2022/01/04 00:33:58;;;;;;;7.93;1.67;;;;;;;;;;5053253;28;20029;-74
2022/01/04 00:36:25;;;;;;;9.57;1.95;;;;;;;;;;5053203;28;20078;-74
2022/01/04 00:38:52;;;;;;;10.68;2.13;;;;;;;;;;5053077;28;20021;-75
2022/01/04 00:41:19;;;;;;;8.88;2.10;;;;;;;;;;5051959;28;20545;-75
2022/01/04 00:43:46;;;;;;;8.07;1.88;;;;;;;;;;5051820;28;20029;-76
2022/01/04 00:46:16;;;;;;;8.18;2.30;;;;;;;;;;5053096;28;20021;-75
2022/01/04 00:51:28;;;;;;;5.40;1.70;;;;;;;;;;5053196;28;19911;-75
2022/01/04 00:53:55;;;;;;;9.90;1.70;;;;;;;;;;5053026;28;20025;-74
2022/01/04 00:56:23;;;;;;;9.27;2.40;;;;;;;;;;5051790;28;20029;-74
2022/01/04 00:58:50;;;;;;;8.80;1.90;;;;;;;;;;5052973;28;20471;-73
2022/01/04 01:01:17;;;;;;;10.13;1.90;;;;;;;;;;5051764;28;20033;-74
2022/01/04 01:03:44;;;;;;;8.38;1.67;;;;;;;;;;5052572;28;20456;-73
2022/01/04 01:06:11;;;;;;;10.57;1.95;;;;;;;;;;5051704;28;20025;-72
2022/01/04 01:08:39;;;;;;;8.63;2.15;;;;;;;;;;5051552;28;20389;-75
2022/01/04 01:11:07;;;;;;;7.53;1.75;;;;;;;;;;5052922;28;20013;-73
2022/01/04 01:13:34;;;;;;;6.43;1.63;;;;;;;;;;5051475;28;20397;-74
2022/01/04 01:16:02;;;;;;;10.48;1.88;;;;;;;;;;5052827;28;20477;-73
2022/01/04 01:18:29;;;;;;;7.80;2.25;;;;;;;;;;5051380;28;20021;-74
2022/01/04 01:20:56;;;;;;;10.15;2.15;;;;;;;;;;5052786;28;20493;-74
2022/01/04 01:23:23;;;;;;;8.75;1.70;;;;;;;;;;5052627;28;20439;-74
2022/01/04 01:25:51;;;;;;;8.13;2.10;;;;;;;;;;5052669;28;20474;-74
2022/01/04 01:28:18;;;;;;;8.85;1.80;;;;;;;;;;5052554;28;20017;-74
2022/01/04 01:30:46;;;;;;;6.80;1.65;;;;;;;;;;5052634;28;20477;-74
2022/01/04 01:33:13;;;;;;;10.07;1.67;;;;;;;;;;5052571;28;20021;-74
2022/01/04 01:35:41;;;;;;;7.18;1.85;;;;;;;;;;5052534;28;20029;-75
2022/01/04 01:38:08;;;;;;;7.55;2.05;;;;;;;;;;5051226;28;20071;-73
2022/01/04 01:40:37;;;;;;;6.10;1.70;;;;;;;;;;5052239;28;20029;-74
2022/01/04 01:43:05;;;;;;;6.18;1.50;;;;;;;;;;5056544;28;20029;-73
2022/01/04 01:45:32;;;;;;;10.15;2.92;;;;;;;;;;5054951;28;20049;-74
2022/01/04 01:47:59;;;;;;;7.75;1.80;;;;;;;;;;5056388;28;20092;-74
2022/01/04 01:50:27;;;;;;;9.02;2.03;;;;;;;;;;5056220;28;20029;-74
2022/01/04 01:52:54;;;;;;;8.60;2.10;;;;;;;;;;5056465;28;20017;-74
2022/01/04 01:55:25;;;;;;;8.18;1.90;;;;;;;;;;5056156;28;20032;-74
2022/01/04 01:57:54;;;;;;;7.78;1.83;;;;;;;;;;5055242;28;20021;-74
2022/01/04 02:00:22;;;;;;;7.80;1.95;;;;;;;;;;5056426;28;20436;-74
2022/01/04 02:02:50;;;;;;;10.23;2.10;;;;;;;;;;5054894;28;20053;-74
2022/01/04 02:05:17;;;;;;;6.78;1.92;;;;;;;;;;5056223;28;20041;-75
2022/01/04 02:07:46;;;;;;;7.45;1.95;;;;;;;;;;5054872;28;20025;-74
2022/01/04 02:10:13;;;;;;;7.30;1.77;;;;;;;;;;5055221;28;20558;-73
2022/01/04 02:12:44;;;;;;;6.93;1.90;;;;;;;;;;5054854;28;20386;-75
2022/01/04 02:15:13;;;;;;;7.50;1.77;;;;;;;;;;5055856;28;20497;-75
2022/01/04 02:17:40;;;;;;;5.82;1.90;;;;;;;;;;5056087;28;20021;-75
2022/01/04 02:20:09;;;;;;;7.25;1.60;;;;;;;;;;5055978;28;20363;-75
2022/01/04 02:22:37;;;;;;;7.28;1.70;;;;;;;;;;5038469;28;20107;-76
2022/01/04 02:25:04;;;;;;;7.90;1.80;;;;;;;;;;5055791;28;20500;-75
2022/01/04 02:27:35;;;;;;;6.45;1.85;;;;;;;;;;5056010;28;20025;-74
2022/01/04 02:30:04;;;;;;;8.25;1.58;;;;;;;;;;5055794;28;20029;-74
2022/01/04 02:32:31;;;;;;;7.78;1.60;;;;;;;;;;5055897;28;20120;-74
2022/01/04 02:34:58;;;;;;;6.35;1.58;;;;;;;;;;5054384;28;20112;-75
2022/01/04 02:37:27;;;;;;;5.60;1.30;;;;;;;;;;5055624;28;20025;-76
2022/01/04 02:39:55;;;;;;;8.73;1.65;;;;;;;;;;5054589;28;20083;-75
2022/01/04 02:42:23;;;;;;;7.93;1.80;;;;;;;;;;5055608;28;20025;-75
2022/01/04 02:44:52;;;;;;;5.45;1.60;;;;;;;;;;5037867;28;20029;-74
2022/01/04 02:47:20;;;;;;;7.97;2.00;;;;;;;;;;5054424;28;20025;-75
2022/01/04 02:49:48;;;;;;;6.15;1.42;;;;;;;;;;5037853;28;20486;-75
2022/01/04 02:52:17;;;;;;;6.20;1.80;;;;;;;;;;5054742;28;20082;-74
2022/01/04 02:54:44;;;;;;;6.13;1.63;;;;;;;;;;5054231;28;20032;-75
2022/01/04 02:57:11;;;;;;;8.68;1.88;;;;;;;;;;5053992;28;20054;-76
2022/01/04 02:59:39;;;;;;;7.25;1.83;;;;;;;;;;5055190;28;20104;-74
2022/01/04 03:02:06;;;;;;;7.25;2.15;;;;;;;;;;5055148;28;20366;-73
2022/01/04 03:04:34;;;;;;;8.30;1.83;;;;;;;;;;5053749;28;20052;-75
2022/01/04 03:07:02;;;;;;;4.95;1.67;;;;;;;;;;5053898;28;20032;-73
2022/01/04 03:09:31;;;;;;;7.70;1.63;;;;;;;;;;5055047;28;20025;-74
2022/01/04 03:11:58;;;;;;;6.50;1.63;;;;;;;;;;5054978;28;20036;-75
2022/01/04 03:14:25;;;;;;;7.47;1.58;;;;;;;;;;5054961;28;20017;-74
2022/01/04 03:16:52;;;;;;;7.88;1.50;;;;;;;;;;5054949;28;20017;-74
2022/01/04 03:19:20;;;;;;;7.60;1.70;;;;;;;;;;5054881;28;20052;-73
2022/01/04 03:21:47;;;;;;;5.40;1.77;;;;;;;;;;5053391;28;20027;-74
2022/01/04 03:24:15;;;;;;;6.07;1.65;;;;;;;;;;5054817;28;20066;-74
2022/01/04 03:26:42;;;;;;;7.90;1.60;;;;;;;;;;5053421;28;20508;-74
2022/01/04 03:29:11;;;;;;;6.72;1.33;;;;;;;;;;5054744;28;20090;-74
2022/01/04 03:31:39;;;;;;;5.93;1.42;;;;;;;;;;5053408;28;20441;-74
2022/01/04 03:34:06;;;;;;;6.60;1.58;;;;;;;;;;5054680;28;20021;-73
2022/01/04 03:36:34;;;;;;;5.85;1.40;;;;;;;;;;5054503;28;20025;-75
2022/01/04 03:39:04;;;;;;;6.43;1.48;;;;;;;;;;5053283;28;20436;-75
2022/01/04 03:41:30;;;;;;;;;;;;;;;;;;5055104;28;20538;-73
2022/01/04 03:43:58;;;;;;;6.97;1.73;;;;;;;;;;5053034;28;19916;-75
2022/01/04 03:46:25;;;;;;;9.10;1.80;;;;;;;;;;5053118;28;20021;-76
2022/01/04 03:48:52;;;;;;;6.22;1.50;;;;;;;;;;5053126;28;20033;-75
2022/01/04 03:51:19;;;;;;;8.77;1.98;;;;;;;;;;5054327;28;20021;-75
2022/01/04 03:53:46;;;;;;;7.78;1.52;;;;;;;;;;5054284;28;20079;-75
2022/01/04 03:56:14;;;;;;;6.95;1.75;;;;;;;;;;5053135;28;20417;-75
2022/01/04 03:58:41;;;;;;;7.32;1.60;;;;;;;;;;5054127;28;20029;-73
2022/01/04 04:01:08;;;;;;;6.05;1.30;;;;;;;;;;5054011;28;20046;-74
2022/01/04 04:03:36;;;;;;;7.50;1.77;;;;;;;;;;5053133;28;20049;-73
2022/01/04 04:06:03;;;;;;;8.02;1.98;;;;;;;;;;5053800;28;20031;-74
2022/01/04 04:08:30;;;;;;;7.57;2.30;;;;;;;;;;5053974;28;20100;-74
2022/01/04 04:10:59;;;;;;;8.95;2.00;;;;;;;;;;5052429;28;20060;-73
2022/01/04 04:13:26;;;;;;;6.00;1.40;;;;;;;;;;5053839;28;20017;-74
2022/01/04 04:15:53;;;;;;;11.20;1.88;;;;;;;;;;5053830;28;20025;-75
2022/01/04 04:18:20;;;;;;;5.40;1.60;;;;;;;;;;5053684;28;20024;-74
2022/01/04 04:20:47;;;;;;;6.07;1.55;;;;;;;;;;5053819;28;20025;-74
2022/01/04 04:23:14;;;;;;;8.40;1.95;;;;;;;;;;5053456;28;20112;-74
2022/01/04 04:25:42;;;;;;;9.77;1.73;;;;;;;;;;5052320;28;20036;-74
2022/01/04 04:28:09;;;;;;;7.80;1.80;;;;;;;;;;5053577;28;20024;-74
2022/01/04 04:30:37;;;;;;;8.15;1.67;;;;;;;;;;5052298;28;20055;-74
2022/01/04 04:33:04;;;;;;;5.63;1.70;;;;;;;;;;5053374;28;20021;-74
2022/01/04 04:35:32;;;;;;;10.73;1.98;;;;;;;;;;5052359;28;20029;-74
2022/01/04 04:38:00;;;;;;;7.68;1.70;;;;;;;;;;5035675;28;20493;-74
2022/01/04 04:40:27;;;;;;;7.53;1.67;;;;;;;;;;5053478;28;20027;-75
2022/01/04 04:42:55;;;;;;;6.13;1.45;;;;;;;;;;5053322;28;20036;-74
2022/01/04 04:45:22;;;;;;;4.60;1.27;;;;;;;;;;5051855;28;20059;-74
2022/01/04 04:47:50;;;;;;;5.45;1.38;;;;;;;;;;5052097;28;20100;-74
2022/01/04 04:50:17;;;;;;;7.95;1.42;;;;;;;;;;5035609;28;20036;-73
2022/01/04 04:52:46;;;;;;;5.10;1.30;;;;;;;;;;5052023;28;20024;-74
2022/01/04 04:55:16;;;;;;;5.78;1.40;;;;;;;;;;5051954;28;20514;-74
2022/01/04 04:57:43;;;;;;;4.88;1.15;;;;;;;;;;5051984;28;20482;-75
2022/01/04 05:00:12;;;;;;;6.90;1.52;;;;;;;;;;5051854;28;20031;-74
2022/01/04 05:02:42;;;;;;;6.65;1.55;;;;;;;;;;5051655;28;20040;-73
2022/01/04 05:05:10;;;;;;;6.22;1.50;;;;;;;;;;5052845;28;20063;-73
2022/01/04 05:07:37;;;;;;;6.68;1.05;;;;;;;;;;5051885;28;20045;-75
2022/01/04 05:10:05;;;;;;;5.20;1.30;;;;;;;;;;5051574;28;20046;-74
2022/01/04 05:12:32;;;;;;;4.68;1.30;;;;;;;;;;5052984;28;20044;-77
2022/01/04 05:15:00;;;;;;;6.78;1.25;;;;;;;;;;5052649;28;20032;-74
2022/01/04 05:17:27;;;;;;;4.75;1.33;;;;;;;;;;5051688;28;20482;-74
2022/01/04 05:19:54;;;;;;;7.00;1.20;;;;;;;;;;5052853;28;20024;-75
2022/01/04 05:22:26;;;;;;;5.65;1.35;;;;;;;;;;5053200;28;20059;-73
2022/01/04 05:24:53;;;;;;;5.55;1.10;;;;;;;;;;5051546;28;20516;-74
2022/01/04 05:27:22;;;;;;;7.13;1.20;;;;;;;;;;5052935;28;20017;-74
2022/01/04 05:29:49;;;;;;;5.28;1.27;;;;;;;;;;5052767;28;20040;-73
2022/01/04 05:32:19;;;;;;;4.45;1.40;;;;;;;;;;5052935;28;20025;-73
2022/01/04 05:34:46;;;;;;;4.80;1.25;;;;;;;;;;5051420;28;20032;-74
2022/01/04 05:37:14;;;;;;;8.02;1.08;;;;;;;;;;5052720;28;20493;-74
2022/01/04 05:39:41;;;;;;;4.78;1.00;;;;;;;;;;5052696;28;20478;-74
2022/01/04 05:42:11;;;;;;;5.72;1.30;;;;;;;;;;5051298;28;20028;-74
2022/01/04 05:44:38;;;;;;;4.82;0.93;;;;;;;;;;5052580;28;20107;-73
2022/01/04 05:47:06;;;;;;;4.30;0.98;;;;;;;;;;5051300;28;20075;-72
2022/01/04 05:49:33;;;;;;;5.45;1.30;;;;;;;;;;5052644;28;20021;-73
2022/01/04 05:52:00;;;;;;;4.63;1.10;;;;;;;;;;5051216;28;20029;-72
2022/01/04 05:54:28;;;;;;;4.95;1.40;;;;;;;;;;5052528;28;20028;-72
2022/01/04 05:56:55;;;;;;;3.85;0.98;;;;;;;;;;5052426;28;20029;-73
2022/01/04 05:59:22;;;;;;;5.35;1.40;;;;;;;;;;5052466;28;20025;-73
2022/01/04 06:01:49;;;;;;;5.75;1.17;;;;;;;;;;5052311;28;20036;-73
2022/01/04 06:04:17;;;;;;;5.70;1.05;;;;;;;;;;5052132;28;20045;-73
2022/01/04 06:06:44;;;;;;;4.97;1.05;;;;;;;;;;5052169;28;20021;-72
2022/01/04 06:09:20;;;;;;;5.30;1.13;;;;;;;;;;5051044;28;20068;-72
2022/01/04 06:17:06;;;;;;;4.88;1.20;;;;;;;;;;5052211;28;20037;-73
2022/01/04 06:19:33;;;;;;;7.22;1.30;;;;;;;;;;5052177;28;20021;-73
2022/01/04 06:22:00;;;;;;;3.63;1.00;;;;;;;;;;5052086;28;20025;-73
2022/01/04 06:24:28;;;;;;;6.82;1.20;;;;;;;;;;5052043;28;20021;-73
2022/01/04 06:26:55;;;;;;;3.55;0.80;;;;;;;;;;5051873;28;20025;-72
2022/01/04 06:29:22;;;;;;;4.47;1.10;;;;;;;;;;5055648;28;20032;-73
2022/01/04 06:31:49;;;;;;;3.90;0.90;;;;;;;;;;5055563;28;20013;-74
2022/01/04 06:34:17;;;;;;;5.30;1.30;;;;;;;;;;5054181;28;20442;-74
2022/01/04 06:36:44;;;;;;;6.55;1.33;;;;;;;;;;5055386;28;20362;-74
2022/01/04 06:39:11;;;;;;;6.40;1.50;;;;;;;;;;5055475;28;20402;-73
2022/01/04 06:41:38;;;;;;;3.33;1.00;;;;;;;;;;5053915;28;20037;-74
2022/01/04 06:44:06;;;;;;;4.68;1.38;;;;;;;;;;5053937;28;20021;-73
2022/01/04 06:46:33;;;;;;;4.35;1.00;;;;;;;;;;5053967;28;20075;-74
2022/01/04 06:49:01;;;;;;;4.95;1.15;;;;;;;;;;5055274;28;20023;-73
2022/01/04 06:51:28;;;;;;;5.18;1.05;;;;;;;;;;5053982;28;20063;-73
2022/01/04 06:53:55;;;;;;;4.07;1.05;;;;;;;;;;5055141;28;20025;-73
2022/01/04 06:56:23;;;;;;;4.93;1.02;;;;;;;;;;5053675;28;20032;-74
2022/01/04 06:58:50;;;;;;;5.30;1.15;;;;;;;;;;5055095;28;20028;-73
2022/01/04 07:01:17;;;;;;;3.92;0.88;;;;;;;;;;5053733;28;20082;-73
2022/01/04 07:03:44;;;;;;;2.47;0.88;;;;;;;;;;5054729;28;20041;-74
2022/01/04 07:06:11;;;;;;;2.03;0.80;;;;;;;;;;5054910;28;20394;-73
2022/01/04 07:08:38;;;;;;;2.85;1.00;;;;;;;;;;5053601;28;20127;-74
2022/01/04 07:11:05;;;;;;;3.38;0.85;;;;;;;;;;5053914;28;20028;-74
2022/01/04 07:13:33;;;;;;;3.42;0.80;;;;;;;;;;5054898;28;20389;-73
2022/01/04 07:16:00;;;;;;;4.45;1.17;;;;;;;;;;5053710;28;20444;-75
2022/01/04 07:18:27;;;;;;;3.35;0.77;;;;;;;;;;5053449;28;20461;-74
2022/01/04 07:20:54;;;;;;;3.40;0.65;;;;;;;;;;5053537;28;20108;-74
2022/01/04 07:23:22;;;;;;;4.25;1.00;;;;;;;;;;5053307;28;20417;-74
2022/01/04 07:25:49;;;;;;;4.15;1.13;;;;;;;;;;5053375;28;20021;-74
2022/01/04 07:28:16;;;;;;;2.85;0.80;;;;;;;;;;5054604;28;20104;-75
2022/01/04 07:30:44;;;;;;;4.63;0.98;;;;;;;;;;5053305;28;20086;-74
2022/01/04 07:33:11;;;;;;;4.60;1.33;;;;;;;;;;5053189;28;20021;-75
2022/01/04 07:35:38;;;;;;;4.50;0.93;;;;;;;;;;5054629;28;20382;-75
2022/01/04 07:38:05;;;;;;;4.00;1.00;;;;;;;;;;5054329;28;20032;-76
2022/01/04 07:40:32;;;;;;;3.33;1.02;;;;;;;;;;5052862;28;20025;-74
2022/01/04 07:43:00;;;;;;;5.90;0.98;;;;;;;;;;5052329;28;20020;-77
2022/01/04 07:45:30;;;;;;;8.25;1.05;;;;;;;;;;5054678;28;20067;-77
2022/01/04 07:47:59;;;;;;;5.57;1.15;;;29.40;99.90;;;;;;5053058;28;20120;-74
2022/01/04 07:50:26;;;;;;;7.47;1.65;;;;;;;;;;5052954;28;20394;-75
2022/01/04 07:52:54;;;;;;;6.70;1.02;;;;;;;;;;5052798;28;20071;-74
2022/01/04 07:55:21;;;;;;;6.32;1.20;;;;;;;;;;5053893;28;20060;-74
2022/01/04 07:57:48;;;;;;;6.10;1.10;;;;;;;;;;5053892;28;20032;-74
2022/01/04 08:00:16;;;;;;;3.83;0.90;;;;;;;;;;5052742;28;20029;-74
2022/01/04 08:02:44;;;;;;;4.47;1.02;;;;;;;;;;5052464;28;20025;-74
2022/01/04 08:05:12;;;;;;;6.00;1.20;;;;;;;;;;5052536;28;20033;-75
2022/01/04 08:07:40;;;;;;;6.78;1.30;;;;;;;;;;5052622;28;20077;-73
2022/01/04 08:10:07;;;;;;;4.57;1.33;;;;;;;;;;5053900;28;20394;-74
2022/01/04 08:12:35;;;;;;;6.88;1.10;;;;;;;;;;5052465;28;20497;-74
2022/01/04 08:15:04;;;;;;;4.43;1.40;;;;;;;;;;5052329;28;20116;-74
2022/01/04 08:17:31;;;;;;;7.45;1.25;;;;;;;;;;5052522;28;20375;-73
2022/01/04 08:19:59;;;;;;;5.43;1.10;;;;;;;;;;5052362;28;20032;-73
2022/01/04 08:22:31;;;;;;;4.22;1.10;;;;;;;;;;5052996;28;20116;-78
2022/01/04 08:25:06;;;;;;;4.70;1.20;;;;;;;;;;5052316;28;20116;-72
2022/01/04 08:27:34;;;;;;;5.18;0.93;;;;;;;;;;5052316;28;20067;-72
2022/01/04 08:30:01;;;;;;;6.32;1.20;;;;;;;;;;5052133;28;20090;-75
2022/01/04 08:32:28;;;;;;;8.48;1.70;;;;;;;;;;5052198;28;20029;-75
2022/01/04 08:34:55;;;;;;;6.40;1.35;;;;;;;;;;5052102;28;20123;-74
2022/01/04 08:37:22;;;;;;;6.30;1.42;;;;;;;;;;5052084;28;20029;-74
2022/01/04 08:39:50;;;;;;;7.60;1.50;;;;;;;;;;5051847;28;20500;-75
2022/01/04 08:42:20;;;;;;;4.65;1.58;;;;;;;;;;5051963;28;20112;-75
2022/01/04 08:44:47;;;;;;;8.43;1.50;;;;;;;;;;5051818;28;20083;-76
2022/01/04 08:47:14;;;;;;;9.77;1.85;;;;;;;;;;5052137;28;20029;-75
2022/01/04 08:49:44;;;;;;;11.18;1.92;;;;;;;;;;5051571;28;20116;-74
2022/01/04 08:52:14;;;;;;;7.88;1.67;;;;;;;;;;5035447;28;20448;-73
2022/01/04 08:54:41;;;;;;;;;;;;;;;;;;5053836;28;20056;-75
2022/01/04 08:57:08;;;;;;;7.63;1.35;;;;;;;;;;5053208;28;19927;-74
2022/01/04 08:59:38;;;;;;;9.18;2.00;;;25.10;99.90;;;;;;5053267;28;20021;-74
2022/01/04 09:02:05;;;;;;;6.53;1.55;;;25.10;99.90;;;;;;5053137;28;20063;-75
2022/01/04 09:04:33;;;;;;;8.93;1.40;;;25.00;99.90;;;;;;5051564;28;20481;-75
2022/01/04 09:07:01;;;;;;;9.07;1.75;;;25.00;99.90;;;;;;5035375;28;20477;-76
2022/01/04 09:09:29;;;;;;;6.13;1.52;;;;;;;;;;5051803;28;20017;-76
2022/01/04 09:11:59;;;;;;;7.07;1.73;;;;;;;;;;5052932;28;20082;-75
2022/01/04 09:14:40;;;;;;;9.13;1.42;;;;;;;;;;5052974;28;20031;-75
2022/01/04 09:19:55;;;;;;;5.65;1.48;;;;;;;;;;5052797;28;20036;-75
2022/01/04 09:22:24;;;;;;;6.50;1.47;;;;;;;;;;5052720;28;20025;-75
2022/01/04 09:24:51;;;;;;;7.05;1.83;;;;;;;;;;5051338;28;20036;-75
2022/01/04 09:27:18;;;;;;;6.72;1.70;;;;;;;;;;5052729;28;20021;-75
2022/01/04 09:29:46;;;;;;;7.70;1.35;;;;;;;;;;5051359;28;20508;-75
2022/01/04 09:32:16;;;;;;;7.55;1.55;;;;;;;;;;5051367;28;20060;-76
2022/01/04 09:34:45;;;;;;;8.05;2.15;;;;;;;;;;5052626;28;20036;-74
2022/01/04 09:37:12;;;;;;;9.27;1.90;;;;;;;;;;5052959;28;20485;-74
2022/01/04 09:39:39;;;;;;;7.60;1.27;;;;;;;;;;5052510;28;20029;-73
2022/01/04 09:42:10;;;;;;;9.35;1.80;;;;;;;;;;5051389;28;20506;-73
2022/01/04 09:44:37;;;;;;;9.90;2.25;;;;;;;;;;5052600;28;20029;-76
2022/01/04 09:47:07;;;;;;;10.10;1.95;;;;;;;;;;5052589;28;20020;-74
2022/01/04 09:49:34;;;;;;;7.65;1.67;;;;;;;;;;5051288;28;20462;-75
2022/01/04 09:52:04;;;;;;;8.25;1.60;;;;;;;;;;5051275;28;20032;-74
2022/01/04 09:54:31;;;;;;;8.32;1.75;;;;;;;;;;5052607;28;20063;-72
2022/01/04 09:56:59;;;;;;;7.00;1.90;;;;;;;;;;5051177;28;20406;-71
2022/01/04 09:59:26;;;;;;;7.65;1.85;;;;;;;;;;5052381;28;20082;-72
2022/01/04 10:02:00;;;;;;;7.43;1.60;;;;;;;;;;5052376;28;20017;-72
2022/01/04 10:04:27;;;;;;;6.07;1.17;;;;;;;;;;5055856;28;20037;-71
2022/01/04 10:07:01;;;;;;;6.38;1.17;;;;;;;;;;5056074;28;20029;-71
2022/01/04 10:09:41;;;;;;;9.77;1.55;;;;;;;;;;5054864;28;20521;-73
2022/01/04 10:12:10;;;;;;;7.32;1.58;;;;;;;;;;5056132;28;20029;-73
2022/01/04 10:14:40;;;;;;;8.35;1.60;;;;;;;;;;5054622;28;20383;-73
2022/01/04 10:17:09;;;;;;;6.82;1.40;;;;;;;;;;5056028;28;20017;-73
2022/01/04 10:19:37;;;;;;;7.32;1.23;;;;;;;;;;5054531;28;20029;-72
2022/01/04 10:22:23;;;;;;;7.55;1.10;;;;;;;;;;5054505;28;20485;-74
2022/01/04 10:25:03;;;;;;;4.88;0.98;;;24.00;99.90;;;;;;5055832;28;20095;-74
2022/01/04 10:27:44;;;;;;;6.85;1.27;;;24.00;99.90;;;;;;5055847;28;20061;-74
2022/01/04 10:30:20;;;;;;;7.00;1.33;;;24.00;99.90;;;;;;5054415;28;20033;-72
2022/01/04 10:32:49;;;;;;;4.63;1.02;;;24.00;99.90;;;;;;5054483;28;20478;-74
2022/01/04 10:35:23;;;;;;;6.65;1.42;;;24.00;99.90;;;;;;5054358;28;20389;-73
2022/01/04 10:37:51;;;;;;;3.13;1.00;;;24.00;99.90;;;;;;5055540;28;20025;-74
2022/01/04 10:40:19;;;;;;;5.30;0.82;;;24.00;99.90;;;;;;5055508;28;20025;-74
2022/01/04 10:42:47;;;;;;;8.23;1.60;;;24.10;99.90;;;;;;5054175;28;20029;-73
2022/01/04 10:45:32;;;;;;;7.63;2.00;;;24.00;99.90;;;;;;5055416;28;20032;-73
2022/01/04 10:48:12;;;;;;;6.68;1.25;;;24.00;99.90;;;;;;5054187;28;20029;-73
2022/01/04 10:50:41;;;;;;;4.80;1.25;;;23.90;99.90;;;;;;5054096;28;20112;-73
2022/01/04 10:53:34;;;;;;;4.57;1.08;;;23.90;99.90;;;;;;5054163;28;20021;-73
2022/01/04 10:56:05;;;;;;;6.15;1.10;;;23.80;99.90;;;;;;5053683;28;20056;-74
2022/01/04 10:58:52;;;;;;;6.38;1.40;;;23.70;99.90;;;;;;5055260;28;20096;-73
2022/01/04 11:01:22;;;;;;;9.55;1.58;;;23.70;99.90;;;;;;5053913;28;20108;-74
2022/01/04 11:03:55;;;;;;;6.40;1.17;;;23.70;99.90;;;;;;5054860;28;20045;-73
2022/01/04 11:06:31;;;;;;;5.45;1.20;;;23.70;99.90;;;;;;5055378;28;20032;-73
2022/01/04 11:08:59;;;;;;;6.18;1.20;;;23.60;99.90;;;;;;5053777;28;20021;-74
2022/01/04 11:11:27;;;;;;;5.78;1.50;;;23.60;99.90;;;;;;5055019;28;20074;-73
2022/01/04 11:13:55;;;;;;;8.23;1.58;;;23.60;99.90;;;;;;5053202;28;20075;-71
2022/01/04 11:16:24;;;;;;;4.53;1.20;;;23.60;99.90;;;;;;5054870;28;20025;-72
2022/01/04 11:18:53;;;;;;;3.45;0.95;;;23.60;99.90;;;;;;5053540;28;20025;-72
2022/01/04 11:21:31;;;;;;;9.07;1.27;;;23.60;99.90;;;;;;5054804;28;20028;-72
2022/01/04 11:23:59;;;;;;;6.25;1.45;;;23.60;99.90;;;;;;5053397;28;20025;-73
2022/01/04 11:26:28;;;;;;;9.30;1.58;;;23.60;99.90;;;;;;5053438;28;20032;-72
2022/01/04 11:28:56;;;;;;;7.50;1.48;;;23.60;99.90;;;;;;5053272;28;20021;-73
2022/01/04 11:31:45;;;;;;;7.35;1.33;;;23.60;99.90;;;;;;5053214;28;20017;-72
2022/01/04 11:34:37;;;;;;;6.47;1.40;;;23.60;99.90;;;;;;5054532;28;20017;-72
2022/01/04 11:37:05;;;;;;;7.30;1.33;;;23.60;99.90;;;;;;5054446;28;20029;-71
2022/01/04 11:39:39;;;;;;;9.05;1.42;;;23.60;99.90;;;;;;5054385;28;20083;-72
2022/01/04 11:42:10;;;;;;;6.45;1.33;;;23.70;99.90;;;;;;5054317;28;20074;-72
2022/01/04 11:44:46;;;;;;;5.35;1.20;;;23.70;99.90;;;;;;5052945;28;20448;-72
2022/01/04 11:47:26;;;;;;;6.88;1.55;;;23.70;99.90;;;;;;5052963;28;20021;-72
2022/01/04 11:50:37;;;;;;;7.95;1.60;;;23.70;99.90;;;;;;5052964;28;20025;-72
2022/01/04 11:53:11;;;;;;;6.28;1.23;;;23.70;99.90;;;;;;5035315;28;20025;-72
2022/01/04 11:55:47;;;;;;;6.28;1.35;;;23.70;99.90;;;;;;5035133;28;20029;-72
2022/01/04 11:58:17;;;;;;;8.90;1.73;;;23.70;99.90;;;;;;5045094;28;20508;-72
2022/01/04 12:00:45;;;;;;;;;;;23.70;99.90;;;;;;5053116;28;20056;-72
2022/01/04 12:03:22;;;;;;;6.80;1.73;;;23.60;99.90;;;;;;5053692;28;20368;-73
2022/01/04 12:05:56;;;;;;;6.32;1.30;;;23.60;99.90;;;;;;5053841;28;20027;-72
2022/01/04 12:08:25;;;;;;;6.25;1.50;;;23.60;99.90;;;;;;5052598;28;20026;-72
2022/01/04 12:10:56;;;;;;;7.00;1.60;;;23.70;99.90;;;;;;5053806;28;20017;-72
2022/01/04 12:13:26;;;;;;;7.40;1.40;;;23.70;99.90;;;;;;5052437;28;20021;-72
2022/01/04 12:15:58;;;;;;;9.98;1.50;;;23.60;99.90;;;;;;5053651;28;20052;-71
2022/01/04 12:18:33;;;;;;;6.35;1.60;;;23.50;99.90;;;;;;5053689;28;20052;-72
2022/01/04 12:21:02;;;;;;;6.70;1.60;;;23.50;99.90;;;;;;5053756;28;20028;-71
2022/01/04 12:23:36;;;;;;;7.47;1.08;;;23.50;99.90;;;;;;5053518;28;20029;-70
2022/01/04 12:26:08;;;;;;;7.88;1.33;;;23.50;99.90;;;;;;5051476;28;20104;-71
2022/01/04 12:28:40;;;;;;;6.60;1.23;;;23.40;99.90;;;;;;5053487;28;20026;-71
2022/01/04 12:31:20;;;;;;;5.40;1.80;;;23.30;99.90;;;;;;5052188;28;20032;-71
2022/01/04 12:33:53;;;;;;;6.45;1.60;;;23.20;99.90;;;;;;5053399;28;20021;-71
2022/01/04 12:36:45;;;;;;;4.68;1.45;;;23.20;99.90;;;;;;5052099;28;20433;-71
2022/01/04 12:39:15;;;;;;;7.03;1.33;;;23.20;99.90;;;;;;5053434;28;20021;-72
2022/01/04 12:41:43;;;;;;;;;;;23.20;99.90;;;;;;5053698;28;20119;-73
2022/01/04 12:44:11;;;;;;;9.88;1.85;;;;;;;;;;5051618;28;20024;-73
2022/01/04 12:46:39;;;;;;;8.07;1.35;;;;;;;;;;5051906;28;20021;-73
2022/01/04 12:49:11;;;;;;;8.98;1.75;;;;;;;;;;5053268;28;20047;-72
2022/01/04 12:51:38;;;;;;;7.15;1.85;;;;;;;;;;5053180;28;20029;-72
2022/01/04 12:54:10;;;;;;;13.20;3.17;;;;;;;;;;5051826;28;20158;-71
2022/01/04 12:56:42;;;;;;;9.18;2.00;;;;;;;;;;5051775;28;20029;-71
2022/01/04 12:59:09;;;;;;;9.95;1.83;;;;;;;;;;5051728;28;20021;-71
2022/01/04 13:01:37;;;;;;;13.30;2.10;;;;;;;;;;5052908;28;20017;-71
2022/01/04 13:04:19;;;;;;;9.15;2.08;;;;;;;;;;5051381;28;20041;-71
2022/01/04 13:06:46;;;;;;;11.57;2.40;;;;;;;;;;5053037;28;20532;-72
2022/01/04 13:09:18;;;;;;;6.95;2.00;;;;;;;;;;5052976;28;20025;-71
2022/01/04 13:11:49;;;;;;;8.82;1.80;;;;;;;;;;5052848;28;20021;-71
2022/01/04 13:14:24;;;;;;;8.00;1.65;;;23.20;99.90;;;;;;5052865;28;20181;-71
2022/01/04 13:16:51;;;;;;;9.82;1.67;;;;;;;;;;5052844;28;20029;-71
2022/01/04 13:19:22;;;;;;;12.00;1.73;;;;;;;;;;5052784;28;20371;-71
2022/01/04 13:21:59;;;;;;;7.60;1.48;;;;;;;;;;5051531;28;20025;-71
2022/01/04 13:24:30;;;;;;;7.50;1.48;;;;;;;;;;5052610;28;20052;-71
2022/01/04 13:27:16;;;;;;;9.30;1.52;;;;;;;;;;5052757;28;20424;-71
2022/01/04 13:29:47;;;;;;;10.40;1.58;;;22.90;99.90;;;;;;5052639;28;20013;-72
2022/01/04 13:32:14;;;;;;;11.95;2.63;;;22.90;99.90;;;;;;5052692;28;20521;-72
2022/01/04 13:34:43;;;;;;;8.63;1.75;;;22.90;99.90;;;;;;5051374;28;20029;-71
2022/01/04 13:37:11;;;;;;;8.18;2.00;;;22.80;99.90;;;;;;5054765;28;20059;-72
2022/01/04 13:39:38;;;;;;;7.28;1.45;;;22.70;99.90;;;;;;5056703;28;20025;-72
2022/01/04 13:42:34;;;;;;;9.15;1.65;;;22.70;99.90;;;;;;5055301;28;20470;-71
2022/01/04 13:45:04;;;;;;;8.48;1.83;;;22.70;99.90;;;;;;5056558;28;20513;-71
2022/01/04 13:47:41;;;;;;;7.07;1.17;;;22.70;99.90;;;;;;5055321;28;20021;-71
2022/01/04 13:50:22;;;;;;;7.28;1.50;;;22.70;99.90;;;;;;5055268;28;20509;-72
2022/01/04 13:53:07;;;;;;;12.60;1.88;;;22.70;99.90;;;;;;5056551;28;20020;-72
2022/01/04 13:55:49;;;;;;;7.47;1.55;;;22.70;99.90;;;;;;5056346;28;20032;-71
2022/01/04 13:58:31;;;;;;;9.48;2.05;;;22.60;99.90;;;;;;5055055;28;20489;-71
2022/01/04 14:01:09;;;;;;;7.15;1.55;;;22.50;99.90;;;;;;5056273;28;20481;-71
2022/01/04 14:03:36;;;;;;;10.77;1.88;;;22.50;99.90;;;;;;5055943;28;20072;-72
2022/01/04 14:06:04;;;;;;;8.38;2.28;;;22.50;99.90;;;;;;5054929;28;20508;-72
2022/01/04 14:08:48;;;;;;;5.18;1.10;;;22.50;99.90;;;;;;5056146;28;20028;-72
2022/01/04 14:11:23;;;;;;;5.63;1.45;;;22.40;99.90;;;;;;5056139;28;20595;-71
2022/01/04 14:13:51;;;;;;;7.60;1.80;;;22.40;99.90;;;;;;5054883;28;20047;-71
2022/01/04 14:16:20;;;;;;;7.50;1.40;;;22.40;99.90;;;;;;5055945;28;20032;-71
2022/01/04 14:19:08;;;;;;;6.05;1.40;;;22.30;99.90;;;;;;5055986;28;20424;-73
2022/01/04 14:21:43;;;;;;;11.82;1.88;;;22.30;99.90;;;;;;5055861;28;20112;-73
2022/01/04 14:24:29;;;;;;;9.30;1.63;;;;;;;;;;5055811;28;20494;-71
2022/01/04 14:26:56;;;;;;;8.35;1.80;;;;;;;;;;5055776;28;20078;-71
2022/01/04 14:29:33;;;;;;;10.32;1.90;;;;;;;;;;5054452;28;20044;-72
2022/01/04 14:32:22;;;;;;;14.20;1.80;;;22.20;99.90;;;;;;5054334;28;20024;-72
2022/01/04 14:34:50;;;;;;;7.25;1.67;;;22.20;99.90;;;;;;5054396;28;20393;-72
2022/01/04 14:37:18;;;;;;;7.65;1.48;;;22.20;99.90;;;;;;5054348;28;20032;-73
2022/01/04 14:39:46;;;;;;;9.35;1.85;;;22.20;99.90;;;;;;5055441;28;20111;-72